Time;durP1;ratioP1;P1;durP2;ratioP2;P2;SDS_P1;SDS_P2;PMS_P1;PMS_P2;Temp;Humidity;BMP_temperature;BMP_pressure;BME280_temperature;BME280_humidity;BME280_pressure;Samples;Min_cycle;Max_cycle;Signal;HPM_P1;HPM_P2
2023/09/13 00:02:22;;;;;;;23.73;19.83;;;19.60;99.90;;;;;;5038830;28;37754;-82
2023/09/13 00:04:49;;;;;;;25.98;20.45;;;19.60;99.90;;;;;;5023608;28;40621;-83
2023/09/13 00:07:15;;;;;;;28.00;22.08;;;19.50;99.90;;;;;;5024688;28;39609;-84
2023/09/13 00:09:42;;;;;;;27.63;21.08;;;19.50;99.90;;;;;;5019245;28;38846;-84
2023/09/13 00:12:09;;;;;;;27.63;21.33;;;19.40;99.90;;;;;;5016319;28;37869;-84
2023/09/13 00:14:35;;;;;;;25.10;20.67;;;19.50;99.90;;;;;;5022751;28;39942;-84
2023/09/13 00:17:01;;;;;;;22.70;20.25;;;19.60;99.90;;;;;;5020170;28;38653;-84
2023/09/13 00:19:27;;;;;;;25.17;21.33;;;19.50;99.90;;;;;;5019809;28;47203;-83
2023/09/13 00:21:54;;;;;;;25.13;21.42;;;19.50;99.90;;;;;;5020075;28;36503;-86
2023/09/13 00:24:20;;;;;;;24.02;20.90;;;19.60;99.90;;;;;;5016986;28;39028;-85
2023/09/13 00:26:46;;;;;;;26.23;21.58;;;19.60;99.90;;;;;;5031692;28;39484;-85
2023/09/13 00:29:12;;;;;;;22.95;20.55;;;19.50;99.90;;;;;;5027969;28;37207;-85
2023/09/13 00:31:39;;;;;;;30.55;22.67;;;19.50;99.90;;;;;;5029723;28;36535;-85
2023/09/13 00:34:05;;;;;;;26.95;21.70;;;19.40;99.90;;;;;;5038799;28;39078;-85
2023/09/13 00:36:31;;;;;;;28.35;23.33;;;19.40;99.90;;;;;;5051140;28;38436;-84
2023/09/13 00:38:57;;;;;;;25.23;21.17;;;19.40;99.90;;;;;;5042323;28;38860;-83
2023/09/13 00:41:23;;;;;;;30.70;23.05;;;19.40;99.90;;;;;;5031126;28;38202;-84
2023/09/13 00:43:49;;;;;;;24.25;21.48;;;19.30;99.90;;;;;;5034784;28;40718;-85
2023/09/13 00:46:16;;;;;;;30.65;23.55;;;19.30;99.90;;;;;;5024939;28;38827;-84
2023/09/13 00:48:43;;;;;;;25.38;21.48;;;19.30;99.90;;;;;;5027953;28;37696;-84
2023/09/13 00:51:10;;;;;;;38.42;27.88;;;19.30;99.90;;;;;;5039436;28;38046;-84
2023/09/13 00:53:37;;;;;;;27.08;23.20;;;19.20;99.90;;;;;;5023056;28;40568;-85
2023/09/13 00:56:03;;;;;;;28.05;22.50;;;19.20;99.90;;;;;;5023941;28;39027;-85
2023/09/13 00:58:31;;;;;;;31.50;24.95;;;19.20;99.90;;;;;;5022636;28;39678;-84
2023/09/13 01:03:33;;;;;;;34.13;26.25;;;19.20;99.90;;;;;;3314609;22;20066;-78
2023/09/13 01:05:59;;;;;;;30.92;24.65;;;19.10;99.90;;;;;;5024603;28;38393;-78
2023/09/13 01:08:26;;;;;;;31.38;26.10;;;19.10;99.90;;;;;;5015284;28;38000;-78
2023/09/13 01:10:53;;;;;;;30.90;24.85;;;19.00;99.90;;;;;;5011720;28;36356;-78
2023/09/13 01:13:19;;;;;;;33.88;26.15;;;19.00;99.90;;;;;;5017655;28;37779;-78
2023/09/13 01:16:28;;;;;;;39.25;28.15;;;19.00;99.90;;;;;;5033992;28;39395;-78
2023/09/13 01:19:18;;;;;;;34.55;25.60;;;18.90;99.90;;;;;;4989862;28;47720;-78
2023/09/13 01:22:09;;;;;;;38.72;29.00;;;18.90;99.90;;;;;;5019791;28;48535;-78
2023/09/13 01:25:09;;;;;;;35.83;26.90;;;18.90;99.90;;;;;;5015710;28;48653;-78
2023/09/13 01:27:47;;;;;;;32.28;25.42;;;18.90;99.90;;;;;;5009807;28;47463;-78
2023/09/13 01:30:16;;;;;;;33.60;25.83;;;18.90;99.90;;;;;;5007323;28;37523;-78
2023/09/13 01:32:46;;;;;;;34.90;26.88;;;18.80;99.90;;;;;;5031283;28;38578;-78
2023/09/13 01:35:12;;;;;;;40.55;28.85;;;18.80;99.90;;;;;;5018260;28;39497;-77
2023/09/13 01:37:39;;;;;;;40.47;30.25;;;18.80;99.90;;;;;;5005977;28;38497;-78
2023/09/13 01:40:06;;;;;;;40.10;31.35;;;18.80;99.90;;;;;;5024748;28;38057;-77
2023/09/13 01:42:34;;;;;;;56.95;37.03;;;18.80;99.90;;;;;;5017334;28;36328;-78
2023/09/13 01:45:02;;;;;;;40.20;31.25;;;18.80;99.90;;;;;;4998753;28;38870;-78
2023/09/13 01:47:29;;;;;;;66.03;37.53;;;18.80;99.90;;;;;;5017146;28;38195;-77
2023/09/13 01:49:57;;;;;;;41.58;30.67;;;18.80;99.90;;;;;;5021286;28;37917;-77
2023/09/13 01:52:23;;;;;;;38.53;29.63;;;18.80;99.90;;;;;;5019671;28;37834;-78
2023/09/13 01:54:49;;;;;;;44.58;32.70;;;18.70;99.90;;;;;;5019924;28;39691;-76
2023/09/13 01:57:15;;;;;;;37.80;28.75;;;18.70;99.90;;;;;;5006057;28;37443;-77
2023/09/13 01:59:42;;;;;;;44.53;30.70;;;18.70;99.90;;;;;;5012129;28;37417;-78
2023/09/13 02:02:08;;;;;;;41.30;28.55;;;18.70;99.90;;;;;;5026636;28;36573;-78
2023/09/13 02:04:34;;;;;;;37.40;28.60;;;18.70;99.90;;;;;;5026654;28;36407;-76
2023/09/13 02:07:01;;;;;;;36.92;28.52;;;18.70;99.90;;;;;;5024499;28;38440;-76
2023/09/13 02:09:27;;;;;;;41.50;30.52;;;18.70;99.90;;;;;;5022831;28;46782;-78
2023/09/13 02:11:53;;;;;;;37.38;30.65;;;18.70;99.90;;;;;;5020886;28;37230;-78
2023/09/13 02:14:19;;;;;;;39.60;29.58;;;18.70;99.90;;;;;;5006657;28;39294;-78
2023/09/13 02:16:45;;;;;;;42.92;32.25;;;18.70;99.90;;;;;;5009364;28;38173;-77
2023/09/13 02:19:11;;;;;;;48.40;34.97;;;18.70;99.90;;;;;;5028985;28;37549;-77
2023/09/13 02:21:37;;;;;;;40.80;31.58;;;18.70;99.90;;;;;;5030077;28;37487;-76
2023/09/13 02:24:04;;;;;;;43.30;33.05;;;18.70;99.90;;;;;;5015345;28;38166;-76
2023/09/13 02:26:31;;;;;;;45.95;33.33;;;18.60;99.90;;;;;;5013411;28;37283;-76
2023/09/13 02:28:57;;;;;;;50.63;35.97;;;18.60;99.90;;;;;;5027455;28;38672;-77
2023/09/13 02:31:26;;;;;;;42.60;34.63;;;18.60;99.90;;;;;;5026001;28;37132;-77
2023/09/13 02:33:53;;;;;;;48.15;33.72;;;18.60;99.90;;;;;;5030527;28;40066;-77
2023/09/13 02:36:19;;;;;;;46.25;35.60;;;18.60;99.90;;;;;;5024978;28;38291;-77
2023/09/13 02:38:45;;;;;;;48.40;33.58;;;18.60;99.90;;;;;;5043929;28;38300;-77
2023/09/13 02:41:12;;;;;;;51.97;39.30;;;18.60;99.90;;;;;;5041362;28;37314;-77
2023/09/13 02:43:42;;;;;;;48.50;35.30;;;18.70;99.90;;;;;;5021247;28;38865;-77
2023/09/13 02:46:08;;;;;;;64.30;41.97;;;18.60;99.90;;;;;;5017360;28;38804;-77
2023/09/13 02:48:34;;;;;;;48.25;36.40;;;18.60;99.90;;;;;;5010826;28;36981;-76
2023/09/13 02:51:00;;;;;;;49.58;36.30;;;18.60;99.90;;;;;;5015260;28;37600;-77
2023/09/13 02:53:26;;;;;;;54.15;38.00;;;18.60;99.90;;;;;;5017168;28;38842;-76
2023/09/13 02:55:52;;;;;;;58.92;40.47;;;18.60;99.90;;;;;;5011972;28;37445;-77
2023/09/13 02:58:19;;;;;;;80.63;47.53;;;18.60;99.90;;;;;;5013429;28;38011;-77
2023/09/13 03:00:45;;;;;;;59.10;39.13;;;18.60;99.90;;;;;;5022785;28;39954;-78
2023/09/13 03:03:11;;;;;;;58.47;39.92;;;18.60;99.90;;;;;;5028935;28;38959;-78
2023/09/13 03:05:37;;;;;;;53.13;38.90;;;18.50;99.90;;;;;;5015306;28;37047;-78
2023/09/13 03:08:04;;;;;;;63.03;41.97;;;18.50;99.90;;;;;;5016762;28;36853;-78
2023/09/13 03:10:30;;;;;;;65.32;42.28;;;18.60;99.90;;;;;;5012013;28;38126;-78
2023/09/13 03:12:56;;;;;;;61.97;41.67;;;18.60;99.90;;;;;;5012388;28;37334;-78
2023/09/13 03:15:22;;;;;;;60.30;42.00;;;18.60;99.90;;;;;;5014860;28;38329;-78
2023/09/13 03:17:50;;;;;;;62.08;41.63;;;18.70;99.90;;;;;;5032060;28;38925;-79
2023/09/13 03:20:16;;;;;;;70.05;43.25;;;18.70;99.90;;;;;;5026682;28;37592;-78
2023/09/13 03:22:42;;;;;;;56.97;40.25;;;18.70;99.90;;;;;;5010043;28;37651;-78
2023/09/13 03:25:09;;;;;;;69.10;42.78;;;18.70;99.90;;;;;;5022272;28;38218;-77
2023/09/13 03:27:35;;;;;;;57.35;38.40;;;18.80;99.90;;;;;;5008247;28;37635;-79
2023/09/13 03:30:02;;;;;;;66.22;41.83;;;18.80;99.90;;;;;;5022215;28;37526;-78
2023/09/13 03:32:29;;;;;;;65.55;40.72;;;18.80;99.90;;;;;;5019358;28;38506;-78
2023/09/13 03:34:56;;;;;;;60.40;40.38;;;18.80;99.90;;;;;;5021031;28;38645;-78
2023/09/13 03:37:22;;;;;;;66.13;40.85;;;18.70;99.90;;;;;;5001848;28;37918;-78
2023/09/13 03:39:49;;;;;;;62.30;40.13;;;18.70;99.90;;;;;;5022657;28;37656;-77
2023/09/13 03:42:15;;;;;;;67.18;39.03;;;18.60;99.90;;;;;;5016581;28;37879;-77
2023/09/13 03:44:41;;;;;;;52.55;33.85;;;18.60;99.90;;;;;;5015225;28;38318;-77
2023/09/13 03:47:08;;;;;;;48.75;34.42;;;18.60;99.90;;;;;;4999373;28;37618;-77
2023/09/13 03:49:34;;;;;;;48.42;31.42;;;18.50;99.90;;;;;;5018130;28;37581;-77
2023/09/13 03:52:01;;;;;;;43.35;30.65;;;18.50;99.90;;;;;;4999748;28;39139;-77
2023/09/13 03:54:27;;;;;;;42.03;29.20;;;18.50;99.90;;;;;;5009288;28;48006;-78
2023/09/13 03:56:54;;;;;;;40.83;29.33;;;18.40;99.90;;;;;;5001707;28;37270;-77
2023/09/13 03:59:20;;;;;;;47.70;29.02;;;18.40;99.90;;;;;;5002394;28;36467;-77
2023/09/13 04:01:46;;;;;;;41.33;27.00;;;18.40;99.90;;;;;;5020191;28;38823;-77
2023/09/13 04:04:13;;;;;;;36.05;24.83;;;18.30;99.90;;;;;;5013745;28;38913;-77
2023/09/13 04:06:39;;;;;;;33.47;23.95;;;18.30;99.90;;;;;;5013879;28;38266;-78
2023/09/13 04:09:06;;;;;;;33.05;23.83;;;18.30;99.90;;;;;;5021082;28;38431;-77
2023/09/13 04:11:32;;;;;;;37.63;25.92;;;18.30;99.90;;;;;;5000523;28;38044;-77
2023/09/13 04:14:00;;;;;;;39.55;26.48;;;18.30;99.90;;;;;;5020799;28;38079;-77
2023/09/13 04:16:26;;;;;;;35.47;22.90;;;18.30;99.90;;;;;;4999969;28;46705;-77
2023/09/13 04:18:53;;;;;;;37.92;25.40;;;18.30;99.90;;;;;;5025063;28;38488;-78
2023/09/13 04:21:19;;;;;;;30.80;22.92;;;18.20;99.90;;;;;;5030067;28;38880;-78
2023/09/13 04:23:45;;;;;;;31.90;22.73;;;18.20;99.90;;;;;;5009980;28;37227;-78
2023/09/13 04:26:13;;;;;;;31.02;21.75;;;18.20;99.90;;;;;;5016953;28;38595;-77
2023/09/13 04:28:39;;;;;;;29.60;20.88;;;18.20;99.90;;;;;;5008314;28;36298;-78
2023/09/13 04:31:05;;;;;;;23.58;18.27;;;18.20;99.90;;;;;;5019731;28;40457;-78
2023/09/13 04:33:51;;;;;;;27.85;19.08;;;18.20;99.90;;;;;;5021593;28;37405;-77
2023/09/13 04:36:18;;;;;;;24.30;17.67;;;18.20;99.90;;;;;;5030151;28;38181;-77
2023/09/13 04:38:46;;;;;;;23.42;18.40;;;18.10;99.90;;;;;;5015519;28;35976;-77
2023/09/13 04:41:13;;;;;;;23.52;18.30;;;18.10;99.90;;;;;;5033502;28;39890;-76
2023/09/13 04:43:40;;;;;;;22.55;18.27;;;18.10;99.90;;;;;;5030970;28;38664;-76
2023/09/13 04:46:06;;;;;;;24.92;19.08;;;18.10;99.90;;;;;;5006998;28;37314;-77
2023/09/13 04:48:34;;;;;;;26.85;20.35;;;18.10;99.90;;;;;;5010551;28;40167;-76
2023/09/13 04:51:00;;;;;;;27.33;20.45;;;18.20;99.90;;;;;;5024512;28;38932;-76
2023/09/13 04:53:26;;;;;;;29.95;21.05;;;18.20;99.90;;;;;;5005498;28;38427;-78
2023/09/13 04:55:53;;;;;;;23.42;20.30;;;18.20;99.90;;;;;;5009679;28;36984;-77
2023/09/13 04:58:19;;;;;;;23.85;19.50;;;18.30;99.90;;;;;;5020818;28;37156;-77
2023/09/13 05:00:45;;;;;;;22.10;19.35;;;18.30;99.90;;;;;;5010406;28;38641;-77
2023/09/13 05:03:11;;;;;;;30.88;19.83;;;18.30;99.90;;;;;;5026233;28;38390;-76
2023/09/13 05:05:39;;;;;;;42.50;20.25;;;18.30;99.90;;;;;;5026973;28;38413;-76
2023/09/13 05:08:05;;;;;;;20.50;7.70;;;18.30;99.90;;;;;;5014092;28;36616;-77
2023/09/13 05:10:32;;;;;;;25.13;7.60;;;18.10;99.90;;;;;;5008959;28;38636;-76
2023/09/13 05:12:58;;;;;;;25.67;6.68;;;18.00;99.90;;;;;;5001181;28;37259;-76
2023/09/13 05:15:24;;;;;;;23.38;5.53;;;17.90;99.90;;;;;;5007997;28;37938;-76
2023/09/13 05:17:50;;;;;;;22.45;4.75;;;17.80;99.90;;;;;;5014142;28;36675;-79
2023/09/13 05:20:17;;;;;;;21.02;3.95;;;17.70;99.90;;;;;;5024225;28;38984;-78
2023/09/13 05:22:43;;;;;;;21.25;3.38;;;17.50;99.90;;;;;;5019539;28;38465;-76
2023/09/13 05:25:09;;;;;;;25.33;3.30;;;17.40;99.90;;;;;;5024778;28;38643;-78
2023/09/13 05:27:35;;;;;;;28.98;4.13;;;17.30;99.90;;;;;;5033278;28;38329;-77
2023/09/13 05:30:01;;;;;;;28.15;3.65;;;17.20;99.90;;;;;;5033890;28;39152;-77
2023/09/13 05:32:27;;;;;;;22.92;3.33;;;17.20;99.90;;;;;;5034989;28;38683;-77
2023/09/13 05:34:53;;;;;;;14.23;3.03;;;17.10;99.90;;;;;;5006725;28;38262;-77
2023/09/13 05:37:19;;;;;;;20.98;3.33;;;17.00;99.90;;;;;;5038720;28;37691;-75
2023/09/13 05:39:45;;;;;;;28.48;4.13;;;17.00;99.90;;;;;;5011458;28;37957;-76
2023/09/13 05:42:11;;;;;;;20.27;3.30;;;16.90;99.90;;;;;;5027503;28;39451;-76
2023/09/13 05:44:37;;;;;;;19.42;3.17;;;16.80;99.90;;;;;;5004316;28;38678;-76
2023/09/13 05:47:04;;;;;;;18.67;3.08;;;16.70;99.90;;;;;;5005869;28;38017;-76
2023/09/13 05:49:30;;;;;;;17.33;2.45;;;16.80;99.90;;;;;;5012999;28;37490;-76
2023/09/13 05:51:56;;;;;;;15.23;2.65;;;16.70;99.90;;;;;;5032018;28;38501;-76
2023/09/13 05:54:22;;;;;;;11.82;2.92;;;16.60;99.90;;;;;;5038862;28;37775;-77
2023/09/13 05:56:48;;;;;;;13.45;2.58;;;16.60;99.90;;;;;;5026815;28;38028;-76
2023/09/13 05:59:14;;;;;;;19.70;2.90;;;16.70;99.90;;;;;;5027161;28;38932;-76
2023/09/13 06:01:40;;;;;;;10.25;2.03;;;16.60;99.90;;;;;;5040051;28;39138;-76
2023/09/13 06:04:07;;;;;;;4.63;1.85;;;16.50;99.90;;;;;;5016299;28;38838;-76
2023/09/13 06:06:34;;;;;;;9.82;1.40;;;16.40;99.90;;;;;;5043127;28;36932;-76
2023/09/13 06:09:03;;;;;;;6.53;1.65;;;16.30;99.90;;;;;;5029382;28;38667;-75
2023/09/13 06:11:30;;;;;;;10.30;1.88;;;16.20;99.90;;;;;;5013353;28;47635;-74
2023/09/13 06:13:56;;;;;;;6.35;1.52;;;16.10;99.90;;;;;;5017408;28;37211;-76
2023/09/13 06:16:23;;;;;;;6.32;1.63;;;15.90;99.90;;;;;;5016764;28;37829;-75
2023/09/13 06:18:50;;;;;;;8.98;1.95;;;15.90;99.90;;;;;;5032490;28;38402;-75
2023/09/13 06:21:16;;;;;;;7.93;1.70;;;15.90;99.90;;;;;;5031930;28;38354;-76
2023/09/13 06:23:42;;;;;;;6.93;2.42;;;15.90;99.90;;;;;;5030093;28;38934;-76
2023/09/13 06:26:08;;;;;;;3.80;1.17;;;15.80;99.90;;;;;;5022162;28;36052;-76
2023/09/13 06:28:34;;;;;;;12.07;2.15;;;15.70;99.90;;;;;;5032590;28;40316;-76
2023/09/13 06:31:01;;;;;;;8.07;1.40;;;15.70;99.90;;;;;;5015969;28;38206;-76
2023/09/13 06:33:27;;;;;;;6.63;1.88;;;15.70;99.90;;;;;;5012486;28;39230;-75
2023/09/13 06:35:56;;;;;;;6.35;1.50;;;15.70;99.90;;;;;;5015931;28;36279;-76
2023/09/13 06:38:23;;;;;;;5.97;1.73;;;15.70;99.90;;;;;;5031133;28;40513;-76
2023/09/13 06:40:51;;;;;;;6.10;1.50;;;15.80;99.90;;;;;;5021016;28;37130;-76
2023/09/13 06:43:21;;;;;;;6.47;1.85;;;15.80;99.90;;;;;;5045177;28;38072;-75
2023/09/13 06:45:47;;;;;;;20.52;3.53;;;15.80;99.90;;;;;;5031349;28;39937;-76
2023/09/13 06:48:15;;;;;;;13.25;3.20;;;15.80;99.90;;;;;;5032716;28;38907;-76
2023/09/13 06:50:42;;;;;;;6.93;2.25;;;15.80;99.90;;;;;;5032914;28;38099;-76
2023/09/13 06:53:08;;;;;;;5.65;1.77;;;15.80;99.90;;;;;;5033814;28;38583;-75
2023/09/13 06:55:35;;;;;;;3.78;1.25;;;15.80;99.90;;;;;;5031524;28;37300;-76
2023/09/13 06:58:07;;;;;;;15.15;2.95;;;15.80;99.90;;;;;;5021802;28;36974;-76
2023/09/13 07:00:33;;;;;;;8.63;2.30;;;15.90;99.90;;;;;;5015207;28;46910;-75
2023/09/13 07:03:03;;;;;;;21.23;4.55;;;15.80;99.90;;;;;;5015526;28;38402;-75
2023/09/13 07:05:29;;;;;;;8.35;2.28;;;15.80;99.90;;;;;;5031968;28;47616;-76
2023/09/13 07:07:55;;;;;;;23.80;4.05;;;15.80;99.90;;;;;;5034158;28;39084;-76
2023/09/13 07:10:21;;;;;;;7.65;1.80;;;15.80;99.90;;;;;;5024806;28;38241;-76
2023/09/13 07:12:47;;;;;;;78.70;10.07;;;15.80;99.90;;;;;;5031366;28;38023;-76
2023/09/13 07:15:13;;;;;;;9.27;1.77;;;15.90;99.90;;;;;;5018707;28;38390;-76
2023/09/13 07:17:40;;;;;;;5.72;1.70;;;15.80;99.90;;;;;;5011927;28;39278;-76
2023/09/13 07:20:06;;;;;;;7.97;1.83;;;15.90;99.90;;;;;;5031384;28;38373;-76
2023/09/13 07:22:32;;;;;;;13.20;2.35;;;15.90;99.90;;;;;;5024847;28;37430;-76
2023/09/13 07:24:58;;;;;;;15.02;3.50;;;15.90;99.90;;;;;;5029995;28;37920;-76
2023/09/13 07:27:24;;;;;;;17.67;3.78;;;16.00;99.90;;;;;;5037458;28;38778;-76
2023/09/13 07:29:51;;;;;;;3.25;1.48;;;16.00;99.90;;;;;;5015891;28;37198;-76
2023/09/13 07:32:17;;;;;;;5.70;1.35;;;16.10;99.90;;;;;;5029537;28;38035;-76
2023/09/13 07:34:43;;;;;;;3.05;1.33;;;16.10;99.90;;;;;;5049176;28;38088;-76
2023/09/13 07:37:10;;;;;;;3.75;1.55;;;16.30;99.90;;;;;;5038533;28;38716;-76
2023/09/13 07:39:36;;;;;;;6.35;1.30;;;16.30;99.90;;;;;;5039187;28;39644;-76
2023/09/13 07:42:03;;;;;;;4.82;1.70;;;16.40;99.90;;;;;;5043653;28;38124;-76
2023/09/13 07:44:29;;;;;;;6.45;1.35;;;16.40;99.90;;;;;;5036196;28;37881;-76
2023/09/13 07:46:55;;;;;;;3.22;1.30;;;16.50;99.90;;;;;;5024365;28;37598;-76
2023/09/13 07:49:21;;;;;;;2.88;1.10;;;16.60;99.90;;;;;;5053921;28;38818;-76
2023/09/13 07:51:47;;;;;;;3.95;1.05;;;16.70;99.90;;;;;;5046971;28;36544;-76
2023/09/13 07:54:13;;;;;;;2.85;1.20;;;16.80;99.90;;;;;;5038385;28;37429;-76
2023/09/13 07:56:40;;;;;;;3.22;1.10;;;16.90;99.90;;;;;;5054883;28;37817;-76
2023/09/13 07:59:08;;;;;;;3.67;0.90;;;17.00;99.90;;;;;;5037050;28;38852;-76
2023/09/13 08:01:34;;;;;;;1.52;0.82;;;17.10;99.90;;;;;;5007834;28;36985;-76
2023/09/13 08:04:00;;;;;;;1.35;0.80;;;17.20;99.90;;;;;;5036186;28;36961;-76
2023/09/13 08:06:27;;;;;;;4.40;1.05;;;17.20;99.90;;;;;;5024887;28;37774;-76
2023/09/13 08:08:53;;;;;;;3.13;0.90;;;17.20;99.90;;;;;;5017620;28;38231;-76
2023/09/13 08:11:19;;;;;;;2.35;1.02;;;17.30;99.90;;;;;;5022054;28;38920;-76
2023/09/13 08:13:45;;;;;;;2.70;1.25;;;17.30;99.90;;;;;;5025977;28;37707;-76
2023/09/13 08:16:11;;;;;;;3.55;1.10;;;17.40;99.90;;;;;;5016559;28;37658;-76
2023/09/13 08:18:37;;;;;;;4.57;1.35;;;17.50;99.90;;;;;;5015825;28;37170;-76
2023/09/13 08:21:03;;;;;;;1.00;0.80;;;17.70;99.90;;;;;;5033770;28;40046;-76
2023/09/13 08:23:29;;;;;;;1.58;1.00;;;17.80;99.90;;;;;;5031809;28;37343;-76
2023/09/13 08:25:56;;;;;;;2.65;0.98;;;17.90;99.90;;;;;;5035100;28;38626;-76
2023/09/13 08:28:23;;;;;;;3.88;0.90;;;18.00;99.90;;;;;;5032131;28;39167;-76
2023/09/13 08:30:49;;;;;;;3.03;1.00;;;18.10;99.90;;;;;;5044483;28;38753;-76
2023/09/13 08:33:16;;;;;;;1.45;0.90;;;18.10;99.90;;;;;;5017132;28;35900;-76
2023/09/13 08:35:42;;;;;;;46.65;8.40;;;18.10;99.90;;;;;;5020811;28;37803;-76
2023/09/13 08:38:09;;;;;;;7.88;1.55;;;18.00;99.90;;;;;;5010613;28;37510;-76
2023/09/13 08:40:46;;;;;;;13.57;3.33;;;18.10;99.90;;;;;;5006025;28;37876;-76
2023/09/13 08:43:12;;;;;;;6.43;1.20;;;18.20;99.90;;;;;;5012113;28;36338;-76
2023/09/13 08:45:39;;;;;;;2.13;0.80;;;18.20;99.90;;;;;;5024963;28;38467;-75
2023/09/13 08:48:07;;;;;;;2.75;0.88;;;18.30;99.90;;;;;;5035480;28;38500;-75
2023/09/13 08:50:34;;;;;;;1.80;0.80;;;18.60;99.90;;;;;;5034575;28;38209;-76
2023/09/13 08:53:02;;;;;;;2.22;1.10;;;18.80;99.90;;;;;;5041479;28;38231;-76
2023/09/13 08:55:31;;;;;;;2.97;0.65;;;19.10;99.90;;;;;;5033095;28;48879;-76
2023/09/13 08:57:58;;;;;;;2.45;0.75;;;19.10;99.90;;;;;;5016758;28;37595;-75
2023/09/13 09:00:27;;;;;;;9.80;2.25;;;19.30;99.90;;;;;;5020033;28;37424;-75
2023/09/13 09:02:55;;;;;;;14.27;2.83;;;19.40;99.90;;;;;;5018252;28;48342;-76
2023/09/13 09:05:24;;;;;;;2.63;1.00;;;19.50;99.90;;;;;;5024799;28;37704;-76
2023/09/13 09:07:52;;;;;;;1.70;0.95;;;19.60;99.90;;;;;;5038193;28;38662;-76
2023/09/13 09:10:19;;;;;;;2.53;0.75;;;19.60;99.90;;;;;;5010223;28;37258;-76
2023/09/13 09:12:48;;;;;;;1.00;0.60;;;19.60;99.90;;;;;;5008820;28;36873;-76
2023/09/13 09:15:16;;;;;;;1.48;0.85;;;19.70;99.90;;;;;;5025923;28;38773;-77
2023/09/13 09:17:44;;;;;;;2.03;0.95;;;19.80;99.90;;;;;;5018536;28;38428;-76
2023/09/13 09:20:10;;;;;;;3.45;1.17;;;19.90;99.90;;;;;;5009073;28;38602;-76
2023/09/13 09:22:38;;;;;;;1.42;0.70;;;20.00;99.90;;;;;;5028795;28;37122;-77
2023/09/13 09:25:10;;;;;;;2.38;0.80;;;20.10;99.90;;;;;;5013795;28;37634;-76
2023/09/13 09:27:38;;;;;;;4.03;0.90;;;20.20;99.90;;;;;;5023393;28;48368;-76
2023/09/13 09:30:07;;;;;;;5.75;1.13;;;20.20;99.90;;;;;;5026357;28;38999;-76
2023/09/13 09:32:36;;;;;;;14.32;2.45;;;20.10;99.90;;;;;;5015888;28;49252;-76
2023/09/13 09:35:05;;;;;;;5.80;1.55;;;20.20;99.90;;;;;;5027694;28;39560;-76
2023/09/13 09:37:33;;;;;;;4.93;1.25;;;20.30;99.90;;;;;;5031728;28;47149;-76
2023/09/13 09:40:00;;;;;;;11.70;2.38;;;20.30;96.20;;;;;;5021880;28;37142;-78
2023/09/13 09:42:29;;;;;;;5.65;1.25;;;20.20;99.90;;;;;;5025769;28;37421;-76
2023/09/13 09:44:55;;;;;;;8.60;1.88;;;20.30;99.90;;;;;;5018287;28;39583;-77
2023/09/13 09:47:21;;;;;;;8.10;1.77;;;20.40;99.90;;;;;;5021954;28;37667;-77
2023/09/13 09:49:47;;;;;;;6.35;1.20;;;20.40;99.90;;;;;;5034384;28;39332;-78
2023/09/13 09:52:15;;;;;;;4.18;1.50;;;20.40;99.90;;;;;;5031824;28;38385;-79
2023/09/13 09:54:51;;;;;;;8.98;2.53;;;20.60;99.90;;;;;;5035181;28;40059;-79
2023/09/13 09:57:26;;;;;;;3.25;1.20;;;20.70;99.90;;;;;;5008655;28;37273;-76
2023/09/13 09:59:52;;;;;;;2.97;1.20;;;20.60;99.90;;;;;;5015218;28;37223;-76
2023/09/13 10:02:27;;;;;;;3.72;1.23;;;20.60;99.90;;;;;;5012403;28;36158;-76
2023/09/13 10:04:53;;;;;;;2.35;1.20;;;20.60;99.10;;;;;;5016132;28;37617;-76
2023/09/13 10:07:20;;;;;;;3.88;1.67;;;20.40;93.90;;;;;;5011163;28;37518;-76
2023/09/13 10:09:47;;;;;;;4.10;1.60;;;20.30;99.90;;;;;;5025410;28;37928;-76
2023/09/13 10:12:15;;;;;;;4.22;1.17;;;20.30;99.90;;;;;;5026115;28;37887;-75
2023/09/13 10:14:43;;;;;;;8.13;1.58;;;20.60;99.90;;;;;;5024366;28;39456;-76
2023/09/13 10:17:12;;;;;;;5.47;1.65;;;20.60;97.50;;;;;;5016599;28;38013;-75
2023/09/13 10:19:40;;;;;;;3.42;1.13;;;20.50;88.80;;;;;;5017421;28;36971;-76
2023/09/13 10:22:12;;;;;;;33.58;5.25;;;20.30;97.70;;;;;;5019854;28;36761;-75
2023/09/13 10:24:49;;;;;;;4.35;1.42;;;20.40;99.90;;;;;;5035154;28;38644;-75
2023/09/13 10:27:19;;;;;;;23.17;4.57;;;20.60;99.90;;;;;;5022574;28;38370;-76
2023/09/13 10:29:54;;;;;;;4.20;1.13;;;20.90;82.00;;;;;;5024453;28;38049;-76
2023/09/13 10:32:23;;;;;;;49.78;6.60;;;21.20;81.90;;;;;;5027887;28;36921;-75
2023/09/13 10:34:53;;;;;;;181.88;18.55;;;21.50;72.30;;;;;;5022701;28;38824;-76
2023/09/13 10:37:57;;;;;;;8.32;1.95;;;21.70;52.50;;;;;;5033170;28;39439;-76
2023/09/13 10:40:29;;;;;;;3.60;1.00;;;21.40;51.30;;;;;;5026263;28;37711;-76
2023/09/13 10:42:55;;;;;;;;;;;21.50;65.50;;;;;;5035847;28;37208;-76
2023/09/13 10:45:22;;;;;;;4.35;0.90;;;21.60;41.80;;;;;;5022115;28;37801;-75
2023/09/13 10:47:50;;;;;;;1.23;0.80;;;21.90;43.50;;;;;;5026894;28;37944;-76
2023/09/13 10:50:17;;;;;;;1.02;0.63;;;22.00;48.00;;;;;;5042743;28;38310;-76
2023/09/13 10:52:44;;;;;;;2.60;0.52;;;22.10;63.80;;;;;;5033823;28;37304;-76
2023/09/13 10:55:12;;;;;;;2.58;0.90;;;21.90;63.00;;;;;;5018439;28;37747;-75
2023/09/13 10:57:41;;;;;;;3.58;0.70;;;21.80;41.50;;;;;;5015331;28;38212;-76
2023/09/13 11:00:10;;;;;;;2.13;0.60;;;21.60;65.50;;;;;;5036751;28;39599;-75
2023/09/13 11:02:40;;;;;;;0.98;0.57;;;21.30;28.80;;;;;;5025474;28;37446;-76
2023/09/13 11:05:08;;;;;;;0.70;0.50;;;21.00;58.20;;;;;;5014719;28;39423;-76
2023/09/13 11:07:43;;;;;;;2.33;0.70;;;20.80;49.40;;;;;;5029189;28;39040;-76
2023/09/13 11:10:14;;;;;;;2.10;0.75;;;21.00;71.60;;;;;;5026399;28;37040;-75
2023/09/13 11:12:44;;;;;;;1.47;0.60;;;21.30;84.70;;;;;;5032194;28;37623;-76
2023/09/13 11:15:28;;;;;;;2.25;0.85;;;21.80;50.60;;;;;;5015527;28;38964;-75
2023/09/13 11:17:56;;;;;;;2.83;0.63;;;22.30;48.30;;;;;;5040453;28;39277;-75
2023/09/13 11:20:24;;;;;;;2.13;0.70;;;22.30;33.50;;;;;;5027012;28;37099;-76
2023/09/13 11:23:12;;;;;;;6.57;1.15;;;22.70;44.60;;;;;;5015919;28;36131;-76
2023/09/13 11:25:46;;;;;;;2.33;0.70;;;22.80;34.10;;;;;;5040575;28;47611;-75
2023/09/13 11:28:34;;;;;;;4.10;0.80;;;22.50;33.80;;;;;;5030773;28;39219;-76
2023/09/13 11:31:01;;;;;;;3.20;0.85;;;22.10;47.70;;;;;;5032381;28;36923;-75
2023/09/13 11:33:29;;;;;;;3.00;1.02;;;21.80;62.00;;;;;;5032126;28;48328;-75
2023/09/13 11:35:59;;;;;;;5.63;1.30;;;21.60;86.50;;;;;;5023210;28;37811;-75
2023/09/13 11:38:26;;;;;;;5.28;1.00;;;21.20;85.70;;;;;;5037438;28;39752;-75
2023/09/13 11:40:57;;;;;;;4.25;1.20;;;21.00;76.00;;;;;;5045370;28;38234;-75
2023/09/13 11:43:28;;;;;;;4.90;1.20;;;20.70;85.60;;;;;;5036704;28;37258;-74
2023/09/13 11:45:57;;;;;;;2.38;1.10;;;20.40;87.50;;;;;;5020682;28;38657;-75
2023/09/13 11:48:26;;;;;;;2.70;1.00;;;20.20;90.40;;;;;;5028858;28;38472;-76
2023/09/13 11:50:52;;;;;;;1.42;0.70;;;20.00;83.80;;;;;;5035641;28;38144;-76
2023/09/13 11:53:26;;;;;;;4.75;1.45;;;19.80;82.80;;;;;;5031630;28;38009;-76
2023/09/13 11:55:57;;;;;;;2.65;1.15;;;19.70;83.10;;;;;;5017693;28;38163;-76
2023/09/13 11:58:32;;;;;;;2.42;1.08;;;19.70;94.70;;;;;;5027153;28;37155;-76
2023/09/13 12:01:00;;;;;;;2.55;1.30;;;19.70;81.20;;;;;;5029016;28;38470;-76
2023/09/13 12:03:30;;;;;;;2.38;1.10;;;19.60;92.30;;;;;;5037462;28;36861;-76
2023/09/13 12:05:57;;;;;;;4.45;1.25;;;19.70;80.90;;;;;;5024243;28;39504;-75
2023/09/13 12:08:27;;;;;;;4.63;1.33;;;19.70;74.70;;;;;;5005384;28;37622;-75
2023/09/13 12:10:56;;;;;;;3.35;1.80;;;19.80;90.30;;;;;;5047887;28;38196;-76
2023/09/13 12:13:45;;;;;;;3.03;1.55;;;20.10;73.90;;;;;;5024534;28;36306;-76
2023/09/13 12:16:12;;;;;;;3.78;1.75;;;20.30;90.30;;;;;;5021616;28;39454;-75
2023/09/13 12:18:39;;;;;;;4.15;1.98;;;20.50;72.90;;;;;;5003322;28;37625;-75
2023/09/13 12:21:07;;;;;;;5.28;1.83;;;20.60;75.20;;;;;;5032824;28;39136;-75
2023/09/13 12:23:36;;;;;;;5.90;2.30;;;20.80;88.20;;;;;;5033935;28;36984;-75
2023/09/13 12:26:16;;;;;;;6.70;2.15;;;20.90;77.30;;;;;;5017709;28;39167;-77
2023/09/13 12:28:45;;;;;;;8.35;2.28;;;20.80;48.00;;;;;;5005264;28;46676;-75
2023/09/13 12:31:13;;;;;;;6.05;2.42;;;20.80;60.10;;;;;;5032369;28;39307;-76
2023/09/13 12:33:41;;;;;;;6.57;2.60;;;21.00;78.80;;;;;;5034161;28;36963;-76
2023/09/13 12:36:08;;;;;;;6.47;2.75;;;21.40;56.50;;;;;;5037288;28;38852;-76
2023/09/13 12:38:41;;;;;;;4.68;2.70;;;21.40;53.60;;;;;;5020772;28;37648;-76
2023/09/13 12:41:10;;;;;;;3.80;2.78;;;21.30;60.60;;;;;;5026576;28;36770;-76
2023/09/13 12:43:39;;;;;;;8.52;2.95;;;21.00;71.00;;;;;;5021902;28;38962;-76
2023/09/13 12:46:07;;;;;;;5.80;2.55;;;21.10;56.50;;;;;;5024191;28;37637;-75